Time;durP1;ratioP1;P1;durP2;ratioP2;P2;SDS_P1;SDS_P2;PMS_P1;PMS_P2;Temp;Humidity;BMP_temperature;BMP_pressure;BME280_temperature;BME280_humidity;BME280_pressure;Samples;Min_cycle;Max_cycle;Signal;HPM_P1;HPM_P2
2022/05/22 00:01:14;;;;;;;5.80;2.80;;;13.70;80.40;;;;;;5028774;28;20182;-70
2022/05/22 00:03:40;;;;;;;4.40;2.87;;;13.60;81.60;;;;;;5030227;28;20166;-69
2022/05/22 00:06:05;;;;;;;6.70;3.37;;;13.60;76.70;;;;;;5027205;28;20429;-70
2022/05/22 00:08:31;;;;;;;3.57;3.20;;;13.60;74.20;;;;;;5012534;28;20194;-70
2022/05/22 00:10:56;;;;;;;3.10;2.80;;;13.60;77.80;;;;;;5029365;28;20293;-70
2022/05/22 00:13:22;;;;;;;4.23;2.80;;;13.60;74.40;;;;;;5029387;28;20617;-70
2022/05/22 00:18:32;;;;;;;3.03;2.50;;;13.60;74.80;;;;;;5025052;28;20271;-70
2022/05/22 00:20:58;;;;;;;5.70;2.87;;;13.60;76.60;;;;;;5008611;28;20421;-70
2022/05/22 00:23:24;;;;;;;3.30;2.90;;;13.60;74.60;;;;;;5015394;28;20266;-70
2022/05/22 00:25:49;;;;;;;3.60;2.90;;;13.70;74.80;;;;;;5028928;28;20269;-70
2022/05/22 00:28:15;;;;;;;4.97;3.30;;;13.80;70.40;;;;;;5029210;28;20285;-70
2022/05/22 00:30:41;;;;;;;3.13;2.70;;;13.60;71.30;;;;;;5029522;28;20197;-70
2022/05/22 00:33:06;;;;;;;3.83;3.10;;;13.60;70.80;;;;;;5028720;28;20202;-70
2022/05/22 00:35:32;;;;;;;3.37;2.90;;;13.60;75.60;;;;;;5028672;28;20177;-69
2022/05/22 00:37:58;;;;;;;4.10;3.03;;;13.50;75.70;;;;;;5028553;28;20680;-70
2022/05/22 00:40:23;;;;;;;3.27;2.90;;;13.40;77.50;;;;;;5017194;28;20193;-69
2022/05/22 00:42:50;;;;;;;3.80;3.40;;;13.40;79.60;;;;;;5026919;28;20182;-70
2022/05/22 00:45:16;;;;;;;3.90;3.00;;;13.40;75.40;;;;;;5030031;28;20322;-70
2022/05/22 00:47:41;;;;;;;5.37;3.50;;;13.30;78.90;;;;;;5028574;28;20429;-70
2022/05/22 00:50:07;;;;;;;5.23;2.93;;;13.10;83.50;;;;;;5027395;28;20459;-70
2022/05/22 00:52:39;;;;;;;6.30;3.20;;;13.10;87.10;;;;;;5026460;28;20920;-70
2022/05/22 00:55:14;;;;;;;9.00;2.70;;;13.00;91.00;;;;;;5025104;28;20170;-71
2022/05/22 00:57:45;;;;;;;3.40;2.63;;;12.90;90.90;;;;;;5019311;28;20529;-70
2022/05/22 01:00:15;;;;;;;5.37;3.20;;;12.90;92.20;;;;;;5014951;28;20490;-70
2022/05/22 01:05:25;;;;;;;3.97;3.00;;;12.80;92.60;;;;;;5028548;28;20965;-70
2022/05/22 01:07:50;;;;;;;3.23;2.90;;;12.80;91.40;;;;;;5022752;28;20449;-70
2022/05/22 01:10:17;;;;;;;5.57;3.50;;;12.80;91.90;;;;;;5027058;28;20194;-70
2022/05/22 01:12:45;;;;;;;3.87;3.13;;;12.80;91.90;;;;;;5019394;28;20206;-70
2022/05/22 01:15:13;;;;;;;6.27;3.23;;;12.70;93.10;;;;;;5022091;28;20694;-70
2022/05/22 01:17:41;;;;;;;3.77;3.00;;;12.60;92.40;;;;;;5028395;28;20511;-70
2022/05/22 01:20:07;;;;;;;5.90;3.10;;;12.50;92.10;;;;;;5028103;28;20610;-70
2022/05/22 01:22:33;;;;;;;3.50;3.20;;;12.30;94.10;;;;;;5026177;28;20613;-70
2022/05/22 01:24:58;;;;;;;6.67;2.83;;;12.20;96.30;;;;;;5026699;28;20185;-70
2022/05/22 01:27:26;;;;;;;5.77;3.33;;;12.10;96.80;;;;;;5026563;28;20209;-70
2022/05/22 01:30:09;;;;;;;3.70;2.73;;;12.10;98.60;;;;;;5028781;28;20193;-71
2022/05/22 01:32:36;;;;;;;5.47;3.20;;;12.10;97.50;;;;;;5011402;28;20505;-70
2022/05/22 01:35:03;;;;;;;4.83;3.17;;;12.10;99.70;;;;;;5009134;28;20504;-70
2022/05/22 01:37:28;;;;;;;4.07;3.20;;;11.30;98.50;;;;;;5022134;28;20447;-70
2022/05/22 01:39:54;;;;;;;6.20;3.70;;;12.10;97.60;;;;;;5027851;28;20416;-70
2022/05/22 01:42:19;;;;;;;4.53;3.67;;;12.00;98.60;;;;;;5027309;28;20170;-70
2022/05/22 01:44:45;;;;;;;5.00;3.40;;;12.00;98.30;;;;;;5022867;28;20177;-70
2022/05/22 01:47:10;;;;;;;3.90;2.80;;;12.00;98.70;;;;;;5026985;28;20582;-70
2022/05/22 01:49:36;;;;;;;5.93;3.80;;;11.90;99.70;;;;;;5011707;28;20186;-70
2022/05/22 01:52:02;;;;;;;3.60;3.03;;;11.90;99.80;;;;;;5007912;28;20171;-70
2022/05/22 01:54:27;;;;;;;3.57;2.90;;;12.00;99.90;;;;;;5007463;28;20210;-70
2022/05/22 01:56:53;;;;;;;4.10;3.17;;;12.00;99.90;;;;;;5016804;28;20177;-71
2022/05/22 01:59:18;;;;;;;4.07;3.10;;;12.00;99.90;;;;;;5026555;28;20197;-70
2022/05/22 02:01:44;;;;;;;3.80;3.23;;;12.00;99.90;;;;;;5027107;28;20172;-70
2022/05/22 02:04:10;;;;;;;4.40;3.30;;;12.10;99.90;;;;;;5027978;28;20243;-69
2022/05/22 02:08:18;;;;;;;4.07;3.23;;;12.10;99.90;;;;;;5015250;28;20208;-69
2022/05/22 02:09:21;;;;;;;6.27;3.37;;;12.10;99.90;;;;;;5026382;28;20190;-71
2022/05/22 02:11:46;;;;;;;3.43;3.13;;;12.10;99.60;;;;;;5013087;28;20578;-70
2022/05/22 02:14:14;;;;;;;5.40;3.50;;;12.10;99.80;;;;;;5021567;28;20182;-71
2022/05/22 02:16:39;;;;;;;3.83;3.10;;;12.10;99.30;;;;;;5023484;28;20219;-70
2022/05/22 02:19:05;;;;;;;5.10;3.60;;;12.10;99.80;;;;;;5024642;28;20820;-70
2022/05/22 02:21:32;;;;;;;7.00;4.30;;;12.00;99.90;;;;;;5019733;28;20178;-69
2022/05/22 02:23:57;;;;;;;5.40;3.83;;;12.10;99.90;;;;;;5022697;28;20182;-70
2022/05/22 02:26:23;;;;;;;3.30;3.00;;;12.10;99.90;;;;;;5021864;28;20814;-69
2022/05/22 02:28:49;;;;;;;5.30;3.53;;;12.10;99.90;;;;;;5027016;28;20657;-70
2022/05/22 02:31:14;;;;;;;3.90;3.60;;;12.20;99.90;;;;;;5026627;28;20204;-70
2022/05/22 02:33:40;;;;;;;4.00;3.10;;;12.20;99.90;;;;;;5025688;28;20170;-70
2022/05/22 02:36:08;;;;;;;7.93;3.33;;;12.30;99.90;;;;;;5027855;28;20536;-70
2022/05/22 02:38:34;;;;;;;4.20;3.20;;;12.30;99.90;;;;;;5025399;28;20190;-70
2022/05/22 02:41:06;;;;;;;5.50;3.47;;;12.30;99.90;;;;;;5017956;28;20544;-70
2022/05/22 02:43:32;;;;;;;4.07;3.40;;;12.30;99.90;;;;;;5007235;28;20763;-71
2022/05/22 02:45:59;;;;;;;5.13;3.47;;;12.20;99.90;;;;;;5008044;28;20504;-70
2022/05/22 02:48:24;;;;;;;3.63;3.33;;;12.20;99.90;;;;;;5023881;28;20190;-70
2022/05/22 02:50:50;;;;;;;5.43;3.70;;;12.10;99.90;;;;;;5021330;28;20560;-70
2022/05/22 02:53:15;;;;;;;4.67;3.60;;;12.10;99.90;;;;;;5010655;28;20288;-71
2022/05/22 02:55:43;;;;;;;5.63;3.47;;;12.00;99.90;;;;;;5026370;28;20197;-70
2022/05/22 02:58:09;;;;;;;4.60;4.20;;;12.10;99.90;;;;;;5006935;28;20183;-70
2022/05/22 03:00:34;;;;;;;4.03;3.63;;;12.00;99.90;;;;;;5019899;28;20813;-70
2022/05/22 03:03:00;;;;;;;4.17;3.60;;;12.00;99.90;;;;;;5026994;28;20268;-71
2022/05/22 03:06:37;;;;;;;3.87;3.50;;;12.00;99.90;;;;;;5031672;28;20193;-71
2022/05/22 03:08:14;;;;;;;6.30;3.47;;;12.00;99.90;;;;;;5030388;28;20667;-70
2022/05/22 03:10:40;;;;;;;3.80;3.40;;;11.80;99.90;;;;;;5018581;28;20457;-70
2022/05/22 03:13:05;;;;;;;3.03;2.80;;;11.70;99.90;;;;;;5013764;28;20417;-70
2022/05/22 03:15:31;;;;;;;5.23;3.20;;;11.70;99.90;;;;;;5027928;28;20174;-70
2022/05/22 03:17:56;;;;;;;4.73;3.00;;;11.70;99.90;;;;;;5030605;28;20320;-70
2022/05/22 03:20:22;;;;;;;3.00;2.70;;;11.70;99.90;;;;;;5030417;28;20276;-70
2022/05/22 03:22:47;;;;;;;3.30;3.00;;;11.60;99.90;;;;;;5029646;28;20269;-70
2022/05/22 03:25:13;;;;;;;5.30;3.80;;;11.60;99.90;;;;;;5025341;28;20269;-70
2022/05/22 03:27:38;;;;;;;4.00;3.07;;;11.50;99.90;;;;;;5009230;28;20677;-70
2022/05/22 03:30:05;;;;;;;5.10;3.40;;;11.90;99.90;;;;;;5020470;28;20621;-70
2022/05/22 03:32:32;;;;;;;3.60;2.67;;;11.60;99.90;;;;;;5025695;28;20228;-70
2022/05/22 03:34:57;;;;;;;3.40;3.10;;;11.50;99.90;;;;;;5028582;28;20428;-70
2022/05/22 03:37:24;;;;;;;4.17;3.43;;;11.50;99.90;;;;;;5030092;28;20428;-69
2022/05/22 03:39:51;;;;;;;7.63;3.87;;;11.50;99.90;;;;;;5029421;28;20280;-70
2022/05/22 03:42:16;;;;;;;3.67;3.20;;;11.50;99.90;;;;;;5029602;28;20417;-70
2022/05/22 03:44:42;;;;;;;3.77;3.43;;;11.60;99.90;;;;;;5030301;28;20419;-70
2022/05/22 03:47:07;;;;;;;3.90;3.07;;;11.60;99.90;;;;;;5029551;28;20178;-70
2022/05/22 03:49:33;;;;;;;7.60;3.20;;;11.70;99.90;;;;;;5014823;28;20190;-70
2022/05/22 03:51:58;;;;;;;3.20;2.90;;;11.70;99.90;;;;;;5029364;28;20615;-71
2022/05/22 03:54:24;;;;;;;3.60;3.30;;;11.80;99.90;;;;;;5042743;28;20264;-70
2022/05/22 03:56:49;;;;;;;7.40;3.30;;;11.80;99.90;;;;;;5049930;28;20224;-70
2022/05/22 03:59:15;;;;;;;3.70;3.13;;;11.80;99.90;;;;;;5036169;28;20206;-70
2022/05/22 04:01:40;;;;;;;3.33;3.03;;;11.90;99.90;;;;;;5029477;28;20173;-70
2022/05/22 04:04:06;;;;;;;3.70;2.80;;;12.00;99.90;;;;;;5029068;28;20265;-70
2022/05/22 04:06:32;;;;;;;4.13;3.17;;;12.00;99.90;;;;;;5030604;28;20565;-70
2022/05/22 04:08:57;;;;;;;5.13;3.43;;;12.10;99.90;;;;;;5029393;28;20248;-70
2022/05/22 04:11:23;;;;;;;7.57;3.63;;;12.10;99.90;;;;;;5028716;28;20557;-70
2022/05/22 04:13:49;;;;;;;5.73;3.53;;;12.20;99.90;;;;;;5029633;28;20185;-70
2022/05/22 04:16:14;;;;;;;4.20;3.30;;;12.20;99.90;;;;;;5028813;28;20177;-70
2022/05/22 04:18:41;;;;;;;3.20;2.90;;;12.20;99.90;;;;;;5029142;28;20185;-71
2022/05/22 04:21:08;;;;;;;4.50;3.30;;;12.30;99.90;;;;;;5020775;28;20202;-70
2022/05/22 04:26:18;;;;;;;6.03;3.30;;;12.50;99.90;;;;;;5029128;28;20473;-70
2022/05/22 04:28:44;;;;;;;3.53;3.20;;;12.60;99.90;;;;;;5029176;28;20515;-70
2022/05/22 04:31:09;;;;;;;7.93;3.40;;;12.80;99.90;;;;;;5027993;28;20271;-70
2022/05/22 04:33:35;;;;;;;3.90;3.20;;;12.90;99.90;;;;;;5028939;28;20228;-70
2022/05/22 04:36:01;;;;;;;3.60;3.20;;;13.00;98.90;;;;;;5026271;28;20177;-70
2022/05/22 04:38:27;;;;;;;4.57;3.60;;;13.10;99.30;;;;;;5023062;28;20198;-71
2022/05/22 04:40:54;;;;;;;4.60;3.60;;;13.10;98.10;;;;;;5024234;28;20177;-67
2022/05/22 04:43:20;;;;;;;3.90;3.50;;;13.20;99.30;;;;;;5028800;28;20601;-70
2022/05/22 04:45:46;;;;;;;4.93;3.30;;;13.40;96.70;;;;;;5029672;28;20512;-70
2022/05/22 04:48:11;;;;;;;4.07;3.67;;;13.50;94.80;;;;;;5027213;28;20515;-70
2022/05/22 04:50:37;;;;;;;4.80;3.27;;;13.50;95.70;;;;;;5022948;28;20285;-70
2022/05/22 04:53:03;;;;;;;3.83;3.43;;;13.60;96.00;;;;;;5035219;28;20219;-70
2022/05/22 04:55:29;;;;;;;4.53;3.40;;;13.70;95.50;;;;;;5016784;28;20256;-70
2022/05/22 04:57:54;;;;;;;3.80;3.27;;;13.90;93.80;;;;;;5030864;28;20436;-70
2022/05/22 05:00:20;;;;;;;7.70;3.63;;;14.00;92.60;;;;;;5037502;28;20182;-70
2022/05/22 05:02:47;;;;;;;5.00;3.07;;;14.10;93.30;;;;;;5021174;28;20672;-70
2022/05/22 05:05:13;;;;;;;3.67;2.97;;;14.20;92.40;;;;;;5027116;28;20220;-70
2022/05/22 05:07:39;;;;;;;6.13;2.90;;;14.30;91.00;;;;;;5022107;28;20533;-70
2022/05/22 05:10:07;;;;;;;3.30;3.00;;;14.30;87.60;;;;;;5022974;28;20494;-70
2022/05/22 05:12:36;;;;;;;3.97;3.30;;;14.40;90.00;;;;;;5022970;28;20829;-71
2022/05/22 05:15:06;;;;;;;3.90;3.00;;;14.40;86.50;;;;;;5015603;28;20436;-71
2022/05/22 05:17:31;;;;;;;6.37;2.90;;;14.50;88.20;;;;;;5023969;28;20528;-70
2022/05/22 05:19:57;;;;;;;3.93;3.40;;;15.00;90.40;;;;;;5025308;28;20951;-70
2022/05/22 05:22:23;;;;;;;5.50;3.60;;;14.70;89.30;;;;;;5026680;28;20534;-69
2022/05/22 05:24:48;;;;;;;3.53;3.10;;;14.80;89.90;;;;;;5017773;28;20335;-70
2022/05/22 05:27:13;;;;;;;3.43;3.13;;;15.00;90.30;;;;;;5021489;28;20339;-71
2022/05/22 05:29:39;;;;;;;8.13;3.40;;;15.00;92.50;;;;;;5021632;28;20181;-71
2022/05/22 05:32:05;;;;;;;6.57;3.50;;;15.10;89.20;;;;;;5022046;28;20210;-71
2022/05/22 05:34:30;;;;;;;5.90;3.40;;;15.10;89.50;;;;;;5024673;28;20551;-71
2022/05/22 05:36:56;;;;;;;4.47;3.10;;;15.20;88.80;;;;;;5018521;28;20458;-71
2022/05/22 05:39:21;;;;;;;5.50;3.20;;;15.40;87.30;;;;;;5018011;28;20273;-71
2022/05/22 05:41:47;;;;;;;5.50;3.90;;;15.50;85.70;;;;;;5014891;28;20667;-71
2022/05/22 05:44:13;;;;;;;4.53;3.43;;;15.60;82.30;;;;;;5021853;28;20255;-71
2022/05/22 05:46:39;;;;;;;5.17;3.80;;;15.70;78.40;;;;;;5015794;28;20225;-70
2022/05/22 05:49:06;;;;;;;4.67;3.90;;;15.80;79.30;;;;;;5025335;28;20632;-71
2022/05/22 05:51:32;;;;;;;13.00;3.47;;;16.00;77.10;;;;;;5025993;28;20813;-71
2022/05/22 05:53:58;;;;;;;5.70;3.20;;;16.10;74.50;;;;;;5019642;28;20880;-70
2022/05/22 05:56:24;;;;;;;4.43;3.20;;;16.30;72.50;;;;;;5021284;28;20461;-71
2022/05/22 05:58:50;;;;;;;5.23;3.60;;;16.50;69.00;;;;;;5022906;28;20827;-71
2022/05/22 06:01:17;;;;;;;5.23;3.27;;;16.60;62.30;;;;;;5017067;28;20178;-70
2022/05/22 06:03:44;;;;;;;3.90;3.50;;;17.20;57.00;;;;;;5021506;28;20178;-70
2022/05/22 06:06:10;;;;;;;7.63;3.20;;;16.70;54.50;;;;;;5021050;28;20809;-72
2022/05/22 06:08:36;;;;;;;5.63;3.53;;;16.80;55.80;;;;;;5026698;28;20448;-70
2022/05/22 06:11:02;;;;;;;5.50;3.80;;;17.00;54.40;;;;;;5023724;28;20464;-70
2022/05/22 06:13:28;;;;;;;8.63;3.87;;;17.10;47.70;;;;;;5019478;28;20440;-72
2022/05/22 06:15:53;;;;;;;4.63;3.60;;;17.20;44.20;;;;;;5023201;28;20201;-71
2022/05/22 06:18:20;;;;;;;5.53;3.53;;;17.40;44.20;;;;;;5017867;28;20205;-70
2022/05/22 06:20:46;;;;;;;6.53;4.40;;;17.50;44.30;;;;;;5024897;28;20678;-71
2022/05/22 06:23:12;;;;;;;7.33;5.13;;;17.50;44.30;;;;;;5016906;28;20784;-71
2022/05/22 06:25:40;;;;;;;14.47;4.03;;;17.70;44.40;;;;;;5016131;28;20436;-71
2022/05/22 06:28:06;;;;;;;6.80;4.53;;;17.70;44.50;;;;;;5016038;28;20206;-71
2022/05/22 06:30:32;;;;;;;7.90;4.70;;;17.80;44.50;;;;;;5026317;28;20966;-71
2022/05/22 06:33:00;;;;;;;8.90;4.37;;;17.90;44.60;;;;;;5021254;28;20501;-71
2022/05/22 06:35:25;;;;;;;8.67;4.30;;;18.10;44.70;;;;;;5013901;28;20175;-72
2022/05/22 06:37:51;;;;;;;8.90;4.70;;;18.20;44.80;;;;;;5012931;28;20456;-71
2022/05/22 06:40:16;;;;;;;6.00;4.60;;;18.40;45.00;;;;;;5022145;28;20488;-71
2022/05/22 06:42:44;;;;;;;5.90;4.27;;;18.50;45.10;;;;;;5026372;28;20182;-71
2022/05/22 06:45:15;;;;;;;7.25;4.22;;;18.70;41.90;;;;;;5016200;28;20568;-70
2022/05/22 06:47:43;;;;;;;5.80;4.20;;;18.70;36.60;;;;;;5016636;28;20211;-71
2022/05/22 06:50:12;;;;;;;6.57;4.60;;;18.80;34.50;;;;;;5013662;28;20510;-71
2022/05/22 06:52:38;;;;;;;7.10;4.87;;;19.00;32.90;;;;;;5020105;28;20420;-70
2022/05/22 06:55:05;;;;;;;5.50;4.27;;;19.10;30.30;;;;;;5018184;28;20481;-71
2022/05/22 06:57:31;;;;;;;7.27;4.40;;;19.10;36.90;;;;;;5015665;28;20780;-71
2022/05/22 06:59:58;;;;;;;7.07;4.60;;;19.40;32.80;;;;;;5026163;28;20833;-71
2022/05/22 07:02:29;;;;;;;10.10;5.00;;;19.30;28.90;;;;;;5026198;28;20444;-71
2022/05/22 07:05:01;;;;;;;7.57;4.97;;;19.50;26.60;;;;;;5028109;28;20435;-71
2022/05/22 07:07:27;;;;;;;6.60;4.87;;;19.60;24.10;;;;;;5027350;28;20440;-71
2022/05/22 07:09:53;;;;;;;7.83;4.90;;;19.70;23.40;;;;;;5027395;28;20478;-71
2022/05/22 07:12:19;;;;;;;9.90;5.10;;;19.80;25.60;;;;;;5022518;28;20198;-71
2022/05/22 07:14:48;;;;;;;8.67;5.53;;;19.90;25.10;;;;;;5027544;28;20444;-71
2022/05/22 07:17:15;;;;;;;8.40;5.20;;;20.10;22.80;;;;;;5026343;28;20594;-71
2022/05/22 07:19:44;;;;;;;9.20;4.73;;;20.20;17.30;;;;;;5026392;28;20420;-71
2022/05/22 07:22:10;;;;;;;9.53;4.90;;;20.50;17.70;;;;;;5024934;28;20423;-71
2022/05/22 07:24:37;;;;;;;6.60;4.60;;;20.70;14.60;;;;;;5019716;28;20496;-71
2022/05/22 07:27:03;;;;;;;7.63;5.40;;;20.90;14.50;;;;;;5037525;28;20403;-71
2022/05/22 07:29:29;;;;;;;7.37;5.30;;;21.10;12.10;;;;;;5043316;28;20857;-71
2022/05/22 07:31:56;;;;;;;8.70;4.77;;;21.10;8.10;;;;;;5026937;28;20531;-71
2022/05/22 07:34:24;;;;;;;7.50;4.60;;;21.00;8.10;;;;;;5026409;28;20169;-71
2022/05/22 07:36:54;;;;;;;9.67;5.17;;;21.20;7.00;;;;;;5026257;28;20531;-71
2022/05/22 07:39:20;;;;;;;7.93;4.63;;;21.40;6.00;;;;;;5026647;28;20562;-70
2022/05/22 07:41:45;;;;;;;8.30;4.60;;;21.50;6.60;;;;;;5007275;28;20555;-71
2022/05/22 07:44:11;;;;;;;7.20;4.80;;;21.70;6.10;;;;;;5008175;28;20178;-70
2022/05/22 07:46:36;;;;;;;5.70;4.67;;;21.90;3.90;;;;;;5023753;28;20538;-70
2022/05/22 07:49:02;;;;;;;6.63;4.13;;;22.10;2.00;;;;;;5030087;28;20534;-71
2022/05/22 07:51:28;;;;;;;6.63;4.23;;;22.20;1.00;;;;;;5029785;28;20255;-71
2022/05/22 07:53:53;;;;;;;5.93;4.30;;;22.30;1.00;;;;;;5029339;28;20907;-71
2022/05/22 07:56:22;;;;;;;5.50;4.13;;;22.50;1.00;;;;;;5037831;28;20181;-71
2022/05/22 07:58:49;;;;;;;7.47;4.13;;;22.50;1.10;;;;;;5049725;28;20215;-71
2022/05/22 08:01:14;;;;;;;5.10;4.20;;;22.70;1.00;;;;;;5050298;28;20413;-71
2022/05/22 08:03:40;;;;;;;7.40;3.90;;;23.10;1.00;;;;;;5050755;28;20403;-71
2022/05/22 08:06:05;;;;;;;7.47;3.97;;;23.20;1.00;;;;;;5048838;28;20619;-70
2022/05/22 08:08:31;;;;;;;10.43;3.93;;;23.50;1.00;;;;;;5030591;28;20264;-71
2022/05/22 08:10:58;;;;;;;5.67;3.70;;;23.30;1.00;;;;;;5029808;28;20207;-70
2022/05/22 08:13:24;;;;;;;7.43;3.87;;;23.30;1.00;;;;;;5028812;28;20165;-71
2022/05/22 08:15:49;;;;;;;4.30;3.30;;;23.30;1.00;;;;;;5027981;28;20424;-71
2022/05/22 08:18:15;;;;;;;5.63;4.03;;;23.30;1.00;;;;;;5030057;28;20223;-71
2022/05/22 08:20:43;;;;;;;5.73;3.60;;;23.50;1.00;;;;;;5030730;28;20169;-71
2022/05/22 08:23:14;;;;;;;6.47;3.67;;;23.70;1.00;;;;;;5028140;28;20173;-71
2022/05/22 08:25:39;;;;;;;6.50;3.53;;;24.00;1.00;;;;;;5021897;28;20509;-71
2022/05/22 08:28:05;;;;;;;6.93;3.73;;;24.30;1.00;;;;;;5036264;28;20469;-70
2022/05/22 08:30:32;;;;;;;7.00;3.50;;;24.50;1.00;;;;;;5030694;28;20189;-72
2022/05/22 08:32:58;;;;;;;5.50;3.40;;;24.70;1.00;;;;;;5029495;28;20253;-70
2022/05/22 08:35:31;;;;;;;6.17;3.30;;;24.90;1.00;;;;;;5029986;28;20823;-71
2022/05/22 08:37:57;;;;;;;7.07;3.53;;;25.20;1.00;;;;;;5014304;28;20228;-70
2022/05/22 08:40:24;;;;;;;5.67;3.60;;;25.50;1.00;;;;;;5007710;28;20405;-70
2022/05/22 08:42:58;;;;;;;4.83;3.50;;;25.90;1.00;;;;;;5009730;28;20495;-70
2022/05/22 08:45:29;;;;;;;6.30;3.70;;;26.10;1.00;;;;;;5016901;28;20454;-71
2022/05/22 08:48:12;;;;;;;11.10;3.30;;;26.30;1.00;;;;;;5025215;28;20484;-70
2022/05/22 08:50:38;;;;;;;8.50;3.07;;;27.00;1.00;;;;;;5030382;28;20489;-71
2022/05/22 08:53:20;;;;;;;4.63;2.80;;;27.60;1.00;;;;;;5028908;28;20798;-70
2022/05/22 08:58:58;;;;;;;6.20;2.70;;;29.60;1.00;;;;;;5033650;28;20271;-71
2022/05/22 09:01:48;;;;;;;5.43;3.08;;;30.80;1.00;;;;;;5028634;28;20732;-70
2022/05/22 09:04:43;;;;;;;7.63;2.50;;;32.10;1.00;;;;;;5029610;28;20184;-72
2022/05/22 09:07:17;;;;;;;4.43;2.80;;;33.20;1.00;;;;;;5031190;28;20161;-72
2022/05/22 09:09:45;;;;;;;5.10;2.95;;;33.30;1.00;;;;;;5029030;28;20172;-71
2022/05/22 09:12:49;;;;;;;9.13;2.60;;;33.60;1.00;;;;;;5028696;28;20262;-72
2022/05/22 09:15:19;;;;;;;8.98;2.65;;;34.00;1.00;;;;;;5028004;28;20428;-72
2022/05/22 09:18:16;;;;;;;5.45;2.15;;;34.70;1.00;;;;;;5029661;28;20749;-71
2022/05/22 09:20:55;;;;;;;5.90;2.78;;;35.40;1.00;;;;;;5007515;28;20510;-72
2022/05/22 09:23:30;;;;;;;3.65;2.15;;;35.70;1.00;;;;;;5011906;28;20537;-72
2022/05/22 09:26:17;;;;;;;4.05;2.20;;;36.30;1.00;;;;;;5027804;28;20694;-72
2022/05/22 09:29:17;;;;;;;4.68;2.33;;;36.90;1.00;;;;;;5046332;28;20195;-71
2022/05/22 09:32:01;;;;;;;4.30;2.67;;;36.70;1.00;;;;;;5048559;28;20254;-72
2022/05/22 09:35:04;;;;;;;4.38;2.40;;;36.80;1.00;;;;;;5036363;28;20173;-72
2022/05/22 09:38:02;;;;;;;4.90;2.30;;;36.80;1.00;;;;;;5028918;28;20201;-72
2022/05/22 09:40:41;;;;;;;3.35;2.22;;;36.80;1.00;;;;;;5026520;28;20173;-72
2022/05/22 09:43:24;;;;;;;3.80;2.20;;;36.80;1.00;;;;;;5013920;28;20266;-72
2022/05/22 09:46:15;;;;;;;3.25;2.10;;;35.50;1.00;;;;;;5024243;28;20199;-71
2022/05/22 09:48:51;;;;;;;7.80;2.05;;;35.80;1.00;;;;;;5028544;28;20193;-72
2022/05/22 09:51:23;;;;;;;3.75;2.65;;;37.00;1.00;;;;;;5027107;28;20200;-72
2022/05/22 09:53:54;;;;;;;8.18;2.00;;;38.10;1.00;;;;;;5006436;28;20264;-71
2022/05/22 09:56:30;;;;;;;4.13;2.00;;;38.30;1.00;;;;;;5031339;28;20204;-71
2022/05/22 09:59:11;;;;;;;6.00;2.25;;;38.30;1.00;;;;;;5014987;28;20225;-72
2022/05/22 10:01:40;;;;;;;5.90;2.25;;;38.70;1.00;;;;;;5008454;28;20206;-71
2022/05/22 10:04:31;;;;;;;4.28;1.85;;;38.80;1.00;;;;;;5009055;28;20190;-72
2022/05/22 10:07:15;;;;;;;3.97;1.83;;;38.90;1.00;;;;;;5022943;28;20180;-72
2022/05/22 10:09:59;;;;;;;7.07;2.20;;;39.10;1.00;;;;;;5027139;28;20180;-72
2022/05/22 10:12:28;;;;;;;2.95;1.90;;;37.90;1.00;;;;;;5025877;28;20223;-72
2022/05/22 10:15:19;;;;;;;5.07;2.58;;;38.40;1.00;;;;;;5026764;28;20276;-72
2022/05/22 10:18:12;;;;;;;4.05;2.20;;;38.10;1.00;;;;;;5012834;28;20201;-72
2022/05/22 10:21:04;;;;;;;2.90;2.08;;;38.00;1.00;;;;;;5028383;28;20283;-72
2022/05/22 10:23:57;;;;;;;5.82;2.13;;;38.00;1.00;;;;;;5026272;28;20219;-72
2022/05/22 10:26:32;;;;;;;3.53;1.90;;;37.60;1.00;;;;;;5028363;28;20712;-71
2022/05/22 10:29:12;;;;;;;4.05;2.40;;;38.40;1.00;;;;;;5028672;28;20255;-71
2022/05/22 10:31:48;;;;;;;5.50;2.20;;;38.30;1.00;;;;;;5027707;28;20228;-72
2022/05/22 10:34:28;;;;;;;3.85;2.05;;;38.50;1.00;;;;;;5028380;28;20702;-72
2022/05/22 10:37:02;;;;;;;4.85;2.03;;;39.00;1.00;;;;;;5027773;28;20212;-72
2022/05/22 10:39:28;;;;;;;3.63;2.10;;;39.70;1.00;;;;;;5027207;28;20216;-72
2022/05/22 10:45:10;;;;;;;5.55;2.35;;;39.60;1.00;;;;;;5025695;28;20220;-72
2022/05/22 10:47:35;;;;;;;4.60;2.10;;;39.20;1.00;;;;;;5008386;28;20201;-72
2022/05/22 10:50:30;;;;;;;3.95;1.88;;;38.90;1.00;;;;;;5008351;28;20257;-72
2022/05/22 10:52:55;;;;;;;4.70;2.03;;;39.40;1.00;;;;;;5007510;28;20189;-72
2022/05/22 10:55:28;;;;;;;3.80;2.00;;;40.20;1.00;;;;;;5009092;28;20189;-71
2022/05/22 10:58:04;;;;;;;4.95;1.98;;;40.20;1.00;;;;;;5030542;28;20269;-72
2022/05/22 11:00:30;;;;;;;3.65;2.17;;;39.90;1.00;;;;;;5031813;28;20239;-72
2022/05/22 11:02:56;;;;;;;3.20;1.88;;;39.80;1.00;;;;;;5034282;28;20242;-72
2022/05/22 11:05:26;;;;;;;3.67;2.05;;;39.70;1.00;;;;;;5027387;28;20656;-72
2022/05/22 11:07:53;;;;;;;3.95;2.10;;;39.90;1.00;;;;;;5027421;28;20221;-72
2022/05/22 11:10:26;;;;;;;3.25;2.08;;;40.00;1.00;;;;;;5026613;28;20200;-72
2022/05/22 11:13:10;;;;;;;3.60;2.00;;;40.00;1.00;;;;;;5018449;28;20185;-72
2022/05/22 11:15:39;;;;;;;5.28;2.40;;;40.20;1.00;;;;;;5024362;28;20165;-72
2022/05/22 11:18:09;;;;;;;7.10;2.42;;;40.40;1.00;;;;;;5027805;28;20189;-72
2022/05/22 11:20:38;;;;;;;5.72;2.22;;;41.20;1.00;;;;;;5027571;28;20208;-72
2022/05/22 11:23:08;;;;;;;5.50;2.10;;;41.50;1.00;;;;;;5027705;28;20754;-72
2022/05/22 11:26:18;;;;;;;5.00;1.95;;;41.70;1.00;;;;;;5030301;28;20249;-72
2022/05/22 11:29:14;;;;;;;5.22;1.90;;;41.50;1.00;;;;;;5033741;28;20659;-72
2022/05/22 11:31:58;;;;;;;6.05;2.40;;;41.80;1.00;;;;;;5046505;28;20207;-72
2022/05/22 11:34:33;;;;;;;4.25;1.60;;;41.90;1.00;;;;;;5040222;28;20195;-72
2022/05/22 11:37:35;;;;;;;4.07;1.80;;;42.10;1.00;;;;;;5031541;28;20176;-72
2022/05/22 11:40:05;;;;;;;5.05;1.92;;;42.00;1.00;;;;;;5028682;28;20169;-72
2022/05/22 11:42:34;;;;;;;4.30;1.92;;;41.60;1.00;;;;;;5030340;28;20248;-72
2022/05/22 11:46:01;;;;;;;4.65;2.03;;;41.40;1.00;;;;;;5019158;28;20185;-72
2022/05/22 11:48:32;;;;;;;4.25;2.00;;;41.30;1.00;;;;;;4949181;28;20195;-72
2022/05/22 11:51:33;;;;;;;3.53;2.10;;;41.30;1.00;;;;;;4969310;28;20238;-71
2022/05/22 11:54:17;;;;;;;4.57;1.95;;;41.80;1.00;;;;;;5013664;28;20707;-72
2022/05/22 11:56:55;;;;;;;4.30;1.95;;;41.90;1.00;;;;;;5030967;28;20669;-72
2022/05/22 11:59:24;;;;;;;3.13;1.65;;;42.60;1.00;;;;;;5038603;28;20196;-72
2022/05/22 12:02:02;;;;;;;2.92;1.95;;;42.90;1.00;;;;;;5044053;28;20176;-72
2022/05/22 12:04:34;;;;;;;5.55;1.83;;;43.50;1.00;;;;;;5031495;28;20259;-72
2022/05/22 12:07:16;;;;;;;3.55;2.00;;;43.70;1.00;;;;;;5029613;28;20307;-72
2022/05/22 12:10:02;;;;;;;5.65;2.08;;;43.50;1.00;;;;;;5028209;28;20177;-72
2022/05/22 12:12:53;;;;;;;3.22;1.85;;;43.40;1.00;;;;;;5022342;28;20552;-72
2022/05/22 12:15:42;;;;;;;3.72;2.10;;;43.20;1.00;;;;;;5009764;28;20167;-72
2022/05/22 12:18:36;;;;;;;5.30;2.22;;;43.60;1.00;;;;;;5010878;28;20186;-72
2022/05/22 12:21:05;;;;;;;2.63;2.00;;;43.10;1.00;;;;;;5018798;28;20169;-72
2022/05/22 12:23:42;;;;;;;2.97;1.77;;;43.60;1.00;;;;;;5028330;28;20185;-72
2022/05/22 12:26:08;;;;;;;5.28;2.33;;;44.00;1.00;;;;;;5023237;28;20644;-72
2022/05/22 12:29:03;;;;;;;3.20;1.88;;;43.90;1.00;;;;;;5036233;28;20210;-71
2022/05/22 12:31:45;;;;;;;4.45;2.00;;;44.00;1.00;;;;;;5025729;28;20204;-72
2022/05/22 12:34:14;;;;;;;10.45;2.25;;;43.40;1.00;;;;;;5030886;28;20656;-72
2022/05/22 12:36:50;;;;;;;3.40;1.95;;;43.30;1.00;;;;;;5030559;28;20173;-72
2022/05/22 12:39:18;;;;;;;4.72;2.30;;;43.40;1.00;;;;;;5028889;28;20184;-71
2022/05/22 12:42:05;;;;;;;3.45;2.00;;;43.60;1.00;;;;;;5014832;28;20683;-72
2022/05/22 12:44:31;;;;;;;5.53;2.05;;;43.90;1.00;;;;;;5010375;28;20205;-72
2022/05/22 12:46:58;;;;;;;5.20;1.80;;;44.00;1.00;;;;;;5010578;28;20192;-73
2022/05/22 12:49:31;;;;;;;6.28;2.15;;;43.70;1.00;;;;;;5009875;28;20622;-72
2022/05/22 12:52:27;;;;;;;3.65;2.10;;;43.10;1.00;;;;;;5024064;28;20630;-72
2022/05/22 12:55:02;;;;;;;3.58;1.98;;;42.10;1.00;;;;;;5026043;28;20677;-72
2022/05/22 12:57:28;;;;;;;4.15;1.98;;;40.50;1.00;;;;;;5009780;28;20536;-73
2022/05/22 12:59:59;;;;;;;2.42;1.70;;;40.70;1.00;;;;;;5036565;28;20180;-71
2022/05/22 13:02:33;;;;;;;4.35;2.00;;;41.40;1.00;;;;;;5009549;28;20215;-72
2022/05/22 13:05:01;;;;;;;3.75;1.75;;;42.10;1.00;;;;;;5010026;28;20182;-72
2022/05/22 13:07:33;;;;;;;3.83;1.75;;;42.50;1.00;;;;;;5009958;28;20197;-71
2022/05/22 13:10:11;;;;;;;3.53;1.73;;;42.90;1.00;;;;;;5008779;28;20304;-72
2022/05/22 13:12:38;;;;;;;5.57;1.85;;;43.20;1.00;;;;;;5007303;28;20196;-71
2022/05/22 13:15:04;;;;;;;4.05;1.77;;;43.50;1.00;;;;;;5028973;28;20163;-72
2022/05/22 13:17:51;;;;;;;4.20;1.73;;;43.50;1.00;;;;;;5028805;28;20276;-72
2022/05/22 13:20:35;;;;;;;3.67;1.80;;;43.30;1.00;;;;;;5028337;28;20391;-72
2022/05/22 13:23:07;;;;;;;6.15;1.90;;;42.60;1.00;;;;;;5028424;28;20165;-72